Arhus, Denmark
Current Conditions -  °F | °C
As of 2:20 AM on Monday 22 Dec 2014 (Local Time) from EKAH Reporting Station
Drizzle Drizzle  
Wind Chill: 43°   Ceiling: 800
Heat Index: 48°   Visibility: 6mi
Dew Point: 45°   Wind: 12mph
Humidity: 87%   Direction: 250°WSW
Pressure: 29.5"   Gusts: NA
Location:  56.16°N, 10.21°E
Report Text: EKAH 220120Z AUTO 25010KT 220V280 9999NDV DZ OVC008///09/07 Q0999
Loading
Personal Weather Stations






























Interactive Weather Map New forecast layout! Learn more

10-Day Weather Forecast

Advertisements
Track Severe Weather on mobile